sensor_id;sensor_type;location;lat;lon;timestamp;temperature;humidity
3086;DHT22;52812;48.960;9.108;2023-06-19T00:02:00;20.10;99.90
3086;DHT22;52812;48.960;9.108;2023-06-19T00:04:25;19.90;99.90
3086;DHT22;52812;48.960;9.108;2023-06-19T00:06:52;19.90;99.90
3086;DHT22;52812;48.960;9.108;2023-06-19T00:09:18;19.90;99.90
3086;DHT22;52812;48.960;9.108;2023-06-19T00:11:44;19.70;99.90
3086;DHT22;52812;48.960;9.108;2023-06-19T00:14:10;19.60;99.90
3086;DHT22;52812;48.960;9.108;2023-06-19T00:16:35;19.60;99.90
3086;DHT22;52812;48.960;9.108;2023-06-19T00:19:01;19.70;99.90
3086;DHT22;52812;48.960;9.108;2023-06-19T00:21:29;19.80;99.90
3086;DHT22;52812;48.960;9.108;2023-06-19T00:23:55;19.70;99.90
3086;DHT22;52812;48.960;9.108;2023-06-19T00:26:21;19.70;99.90
3086;DHT22;52812;48.960;9.108;2023-06-19T00:28:51;19.70;99.90
3086;DHT22;52812;48.960;9.108;2023-06-19T00:31:17;19.70;99.90
3086;DHT22;52812;48.960;9.108;2023-06-19T00:33:45;19.70;99.90
3086;DHT22;52812;48.960;9.108;2023-06-19T00:36:13;19.60;99.90
3086;DHT22;52812;48.960;9.108;2023-06-19T00:38:39;19.60;99.90
3086;DHT22;52812;48.960;9.108;2023-06-19T00:41:05;19.50;99.90
3086;DHT22;52812;48.960;9.108;2023-06-19T00:43:32;19.40;99.90
3086;DHT22;52812;48.960;9.108;2023-06-19T00:45:58;19.30;99.90
3086;DHT22;52812;48.960;9.108;2023-06-19T00:48:24;19.30;99.90
3086;DHT22;52812;48.960;9.108;2023-06-19T00:50:51;19.20;99.90
3086;DHT22;52812;48.960;9.108;2023-06-19T00:53:18;19.20;99.90
3086;DHT22;52812;48.960;9.108;2023-06-19T00:55:46;19.20;99.90
3086;DHT22;52812;48.960;9.108;2023-06-19T00:58:12;19.30;99.90
3086;DHT22;52812;48.960;9.108;2023-06-19T01:00:37;19.30;99.90
3086;DHT22;52812;48.960;9.108;2023-06-19T01:03:03;19.30;99.90
3086;DHT22;52812;48.960;9.108;2023-06-19T01:05:29;19.40;99.90
3086;DHT22;52812;48.960;9.108;2023-06-19T01:10:43;19.80;99.90
3086;DHT22;52812;48.960;9.108;2023-06-19T01:13:53;20.10;99.90
3086;DHT22;52812;48.960;9.108;2023-06-19T01:16:21;20.40;99.90
3086;DHT22;52812;48.960;9.108;2023-06-19T01:18:48;20.50;99.90
3086;DHT22;52812;48.960;9.108;2023-06-19T01:21:16;20.60;99.90
3086;DHT22;52812;48.960;9.108;2023-06-19T01:23:42;20.60;99.90
3086;DHT22;52812;48.960;9.108;2023-06-19T01:26:09;20.70;99.90
3086;DHT22;52812;48.960;9.108;2023-06-19T01:28:35;20.70;99.90
3086;DHT22;52812;48.960;9.108;2023-06-19T01:33:50;20.90;99.90
3086;DHT22;52812;48.960;9.108;2023-06-19T01:36:19;21.00;99.90
3086;DHT22;52812;48.960;9.108;2023-06-19T01:38:45;21.10;99.90
3086;DHT22;52812;48.960;9.108;2023-06-19T01:41:14;21.20;99.90
3086;DHT22;52812;48.960;9.108;2023-06-19T01:43:40;21.30;99.90
3086;DHT22;52812;48.960;9.108;2023-06-19T01:46:07;21.30;99.90
3086;DHT22;52812;48.960;9.108;2023-06-19T01:48:35;21.30;99.90
3086;DHT22;52812;48.960;9.108;2023-06-19T01:51:00;21.40;99.90
3086;DHT22;52812;48.960;9.108;2023-06-19T01:53:30;21.40;99.90
3086;DHT22;52812;48.960;9.108;2023-06-19T01:55:56;21.50;99.90
3086;DHT22;52812;48.960;9.108;2023-06-19T01:58:21;21.50;99.90
3086;DHT22;52812;48.960;9.108;2023-06-19T02:00:47;21.40;99.90
3086;DHT22;52812;48.960;9.108;2023-06-19T02:03:13;21.40;99.90
3086;DHT22;52812;48.960;9.108;2023-06-19T02:05:38;21.40;99.90
3086;DHT22;52812;48.960;9.108;2023-06-19T02:08:05;21.40;99.90
3086;DHT22;52812;48.960;9.108;2023-06-19T02:10:31;21.40;99.90
3086;DHT22;52812;48.960;9.108;2023-06-19T02:12:57;21.40;99.90
3086;DHT22;52812;48.960;9.108;2023-06-19T02:15:23;21.50;99.90
3086;DHT22;52812;48.960;9.108;2023-06-19T02:17:48;21.50;99.90
3086;DHT22;52812;48.960;9.108;2023-06-19T02:20:14;21.50;99.90
3086;DHT22;52812;48.960;9.108;2023-06-19T02:22:40;21.50;99.90
3086;DHT22;52812;48.960;9.108;2023-06-19T02:25:07;21.50;99.90
3086;DHT22;52812;48.960;9.108;2023-06-19T02:27:32;21.40;99.90
3086;DHT22;52812;48.960;9.108;2023-06-19T02:29:58;21.40;99.90
3086;DHT22;52812;48.960;9.108;2023-06-19T02:32:24;21.40;99.90
3086;DHT22;52812;48.960;9.108;2023-06-19T02:34:50;21.40;99.90
3086;DHT22;52812;48.960;9.108;2023-06-19T02:37:15;21.40;99.90
3086;DHT22;52812;48.960;9.108;2023-06-19T02:39:41;21.30;99.90
3086;DHT22;52812;48.960;9.108;2023-06-19T02:42:07;21.40;99.90
3086;DHT22;52812;48.960;9.108;2023-06-19T02:44:33;21.30;99.90
3086;DHT22;52812;48.960;9.108;2023-06-19T02:46:58;21.30;99.90
3086;DHT22;52812;48.960;9.108;2023-06-19T02:49:24;21.30;99.90
3086;DHT22;52812;48.960;9.108;2023-06-19T02:51:50;21.30;99.90
3086;DHT22;52812;48.960;9.108;2023-06-19T02:54:15;21.20;99.90
3086;DHT22;52812;48.960;9.108;2023-06-19T02:56:41;21.20;99.90
3086;DHT22;52812;48.960;9.108;2023-06-19T02:59:06;21.10;99.90
3086;DHT22;52812;48.960;9.108;2023-06-19T03:01:32;21.00;99.90
3086;DHT22;52812;48.960;9.108;2023-06-19T03:03:59;20.90;99.90
3086;DHT22;52812;48.960;9.108;2023-06-19T03:06:25;20.80;99.90
3086;DHT22;52812;48.960;9.108;2023-06-19T03:08:51;20.70;99.90
3086;DHT22;52812;48.960;9.108;2023-06-19T03:11:17;20.60;99.90
3086;DHT22;52812;48.960;9.108;2023-06-19T03:13:53;20.50;99.90
3086;DHT22;52812;48.960;9.108;2023-06-19T03:16:20;20.50;99.90
3086;DHT22;52812;48.960;9.108;2023-06-19T03:18:46;20.40;99.90
3086;DHT22;52812;48.960;9.108;2023-06-19T03:21:15;20.30;99.90
3086;DHT22;52812;48.960;9.108;2023-06-19T03:23:41;20.30;99.90
3086;DHT22;52812;48.960;9.108;2023-06-19T03:26:10;20.30;99.90
3086;DHT22;52812;48.960;9.108;2023-06-19T03:28:36;20.30;99.90
3086;DHT22;52812;48.960;9.108;2023-06-19T03:31:02;20.20;99.90
3086;DHT22;52812;48.960;9.108;2023-06-19T03:33:28;20.20;99.90
3086;DHT22;52812;48.960;9.108;2023-06-19T03:35:53;20.20;99.90
3086;DHT22;52812;48.960;9.108;2023-06-19T03:38:19;20.20;99.90
3086;DHT22;52812;48.960;9.108;2023-06-19T03:40:45;20.10;99.90
3086;DHT22;52812;48.960;9.108;2023-06-19T03:43:10;20.00;99.90
3086;DHT22;52812;48.960;9.108;2023-06-19T03:45:36;20.00;99.90
3086;DHT22;52812;48.960;9.108;2023-06-19T03:48:02;20.10;99.90
3086;DHT22;52812;48.960;9.108;2023-06-19T03:50:28;20.10;99.90
3086;DHT22;52812;48.960;9.108;2023-06-19T03:52:53;20.10;99.90
3086;DHT22;52812;48.960;9.108;2023-06-19T03:55:19;20.10;99.90
3086;DHT22;52812;48.960;9.108;2023-06-19T03:57:45;20.00;99.90
3086;DHT22;52812;48.960;9.108;2023-06-19T04:00:11;20.00;99.90
3086;DHT22;52812;48.960;9.108;2023-06-19T04:02:39;20.00;99.90
3086;DHT22;52812;48.960;9.108;2023-06-19T04:05:05;20.00;99.90
3086;DHT22;52812;48.960;9.108;2023-06-19T04:07:31;20.10;99.90
3086;DHT22;52812;48.960;9.108;2023-06-19T04:09:57;20.10;99.90
3086;DHT22;52812;48.960;9.108;2023-06-19T04:12:23;20.10;99.90
3086;DHT22;52812;48.960;9.108;2023-06-19T04:14:49;20.10;99.90
3086;DHT22;52812;48.960;9.108;2023-06-19T04:17:15;20.20;99.90
3086;DHT22;52812;48.960;9.108;2023-06-19T04:19:41;20.20;99.90
3086;DHT22;52812;48.960;9.108;2023-06-19T04:22:07;20.20;99.90
3086;DHT22;52812;48.960;9.108;2023-06-19T04:24:33;20.20;99.90
3086;DHT22;52812;48.960;9.108;2023-06-19T04:26:58;20.20;99.90
3086;DHT22;52812;48.960;9.108;2023-06-19T04:29:24;20.30;99.90
3086;DHT22;52812;48.960;9.108;2023-06-19T04:31:49;20.30;99.90
3086;DHT22;52812;48.960;9.108;2023-06-19T04:34:16;20.40;99.90
3086;DHT22;52812;48.960;9.108;2023-06-19T04:36:42;20.50;99.90
3086;DHT22;52812;48.960;9.108;2023-06-19T04:39:08;20.60;99.90
3086;DHT22;52812;48.960;9.108;2023-06-19T04:41:34;20.80;99.90
3086;DHT22;52812;48.960;9.108;2023-06-19T04:44:04;21.00;99.90
3086;DHT22;52812;48.960;9.108;2023-06-19T04:46:30;21.10;99.90
3086;DHT22;52812;48.960;9.108;2023-06-19T04:48:55;21.10;99.90
3086;DHT22;52812;48.960;9.108;2023-06-19T04:51:21;21.30;99.90
3086;DHT22;52812;48.960;9.108;2023-06-19T04:53:47;21.30;99.90
3086;DHT22;52812;48.960;9.108;2023-06-19T04:56:14;21.40;99.90
3086;DHT22;52812;48.960;9.108;2023-06-19T04:58:41;21.50;99.90
3086;DHT22;52812;48.960;9.108;2023-06-19T05:01:15;21.60;99.90
3086;DHT22;52812;48.960;9.108;2023-06-19T05:03:42;21.70;99.90
3086;DHT22;52812;48.960;9.108;2023-06-19T05:06:08;21.90;99.90
3086;DHT22;52812;48.960;9.108;2023-06-19T05:08:34;22.00;99.90
3086;DHT22;52812;48.960;9.108;2023-06-19T05:11:00;22.00;99.90
3086;DHT22;52812;48.960;9.108;2023-06-19T05:13:25;22.00;99.90
3086;DHT22;52812;48.960;9.108;2023-06-19T05:15:51;22.10;99.90
3086;DHT22;52812;48.960;9.108;2023-06-19T05:18:17;22.20;99.90
3086;DHT22;52812;48.960;9.108;2023-06-19T05:20:43;22.30;99.90
3086;DHT22;52812;48.960;9.108;2023-06-19T05:23:09;22.40;99.90
3086;DHT22;52812;48.960;9.108;2023-06-19T05:25:34;22.50;99.90
3086;DHT22;52812;48.960;9.108;2023-06-19T05:28:00;22.50;99.90
3086;DHT22;52812;48.960;9.108;2023-06-19T05:30:26;22.70;99.90
3086;DHT22;52812;48.960;9.108;2023-06-19T05:32:51;22.80;99.90
3086;DHT22;52812;48.960;9.108;2023-06-19T05:35:17;23.00;99.90
3086;DHT22;52812;48.960;9.108;2023-06-19T05:37:43;23.20;99.90
3086;DHT22;52812;48.960;9.108;2023-06-19T05:40:09;23.30;99.90
3086;DHT22;52812;48.960;9.108;2023-06-19T05:42:35;23.30;99.90
3086;DHT22;52812;48.960;9.108;2023-06-19T05:45:02;23.40;99.90
3086;DHT22;52812;48.960;9.108;2023-06-19T05:47:28;23.30;99.90
3086;DHT22;52812;48.960;9.108;2023-06-19T05:49:58;23.10;99.90
3086;DHT22;52812;48.960;9.108;2023-06-19T05:52:24;23.20;99.90
3086;DHT22;52812;48.960;9.108;2023-06-19T05:54:49;23.20;99.90
3086;DHT22;52812;48.960;9.108;2023-06-19T05:57:15;23.30;99.90
3086;DHT22;52812;48.960;9.108;2023-06-19T05:59:42;23.30;99.90
3086;DHT22;52812;48.960;9.108;2023-06-19T06:02:08;23.40;99.90
3086;DHT22;52812;48.960;9.108;2023-06-19T06:04:34;23.60;99.90
3086;DHT22;52812;48.960;9.108;2023-06-19T06:07:02;23.70;99.90
3086;DHT22;52812;48.960;9.108;2023-06-19T06:09:28;23.70;99.90
3086;DHT22;52812;48.960;9.108;2023-06-19T06:11:53;23.70;99.90
3086;DHT22;52812;48.960;9.108;2023-06-19T06:14:19;23.60;99.90
3086;DHT22;52812;48.960;9.108;2023-06-19T06:16:45;23.80;99.90
3086;DHT22;52812;48.960;9.108;2023-06-19T06:19:10;23.80;99.90
3086;DHT22;52812;48.960;9.108;2023-06-19T06:21:36;23.80;99.90
3086;DHT22;52812;48.960;9.108;2023-06-19T06:24:02;24.00;99.90
3086;DHT22;52812;48.960;9.108;2023-06-19T06:26:28;24.00;99.90
3086;DHT22;52812;48.960;9.108;2023-06-19T06:28:54;24.30;99.90
3086;DHT22;52812;48.960;9.108;2023-06-19T06:31:22;24.50;99.90
3086;DHT22;52812;48.960;9.108;2023-06-19T06:33:48;25.10;99.90
3086;DHT22;52812;48.960;9.108;2023-06-19T06:36:18;25.50;99.90
3086;DHT22;52812;48.960;9.108;2023-06-19T06:38:43;26.10;99.90
3086;DHT22;52812;48.960;9.108;2023-06-19T06:41:09;26.60;99.90
3086;DHT22;52812;48.960;9.108;2023-06-19T06:43:35;27.20;99.90
3086;DHT22;52812;48.960;9.108;2023-06-19T06:46:00;27.80;99.90
3086;DHT22;52812;48.960;9.108;2023-06-19T06:48:26;27.30;99.90
3086;DHT22;52812;48.960;9.108;2023-06-19T06:50:52;26.80;99.90
3086;DHT22;52812;48.960;9.108;2023-06-19T06:53:27;26.30;99.90
3086;DHT22;52812;48.960;9.108;2023-06-19T06:55:58;26.00;99.90
3086;DHT22;52812;48.960;9.108;2023-06-19T06:58:24;26.00;99.90
3086;DHT22;52812;48.960;9.108;2023-06-19T07:00:50;26.30;99.90
3086;DHT22;52812;48.960;9.108;2023-06-19T07:03:16;26.40;99.90
3086;DHT22;52812;48.960;9.108;2023-06-19T07:05:43;26.30;99.90
3086;DHT22;52812;48.960;9.108;2023-06-19T07:08:08;26.20;99.90
3086;DHT22;52812;48.960;9.108;2023-06-19T07:10:34;27.20;99.90
3086;DHT22;52812;48.960;9.108;2023-06-19T07:12:59;28.60;99.90
3086;DHT22;52812;48.960;9.108;2023-06-19T07:15:25;29.10;99.90
3086;DHT22;52812;48.960;9.108;2023-06-19T07:17:51;28.80;99.90
3086;DHT22;52812;48.960;9.108;2023-06-19T07:20:16;28.30;99.90
3086;DHT22;52812;48.960;9.108;2023-06-19T07:22:43;27.60;99.90
3086;DHT22;52812;48.960;9.108;2023-06-19T07:25:10;27.30;99.90
3086;DHT22;52812;48.960;9.108;2023-06-19T07:27:36;28.00;99.90
3086;DHT22;52812;48.960;9.108;2023-06-19T07:30:02;29.10;99.90
3086;DHT22;52812;48.960;9.108;2023-06-19T07:32:27;29.60;99.90
3086;DHT22;52812;48.960;9.108;2023-06-19T07:34:53;30.20;99.90
3086;DHT22;52812;48.960;9.108;2023-06-19T07:37:19;30.70;99.90
3086;DHT22;52812;48.960;9.108;2023-06-19T07:39:46;31.00;99.90
3086;DHT22;52812;48.960;9.108;2023-06-19T07:42:13;30.90;99.90
3086;DHT22;52812;48.960;9.108;2023-06-19T07:44:42;31.10;99.90
3086;DHT22;52812;48.960;9.108;2023-06-19T07:47:08;31.00;99.90
3086;DHT22;52812;48.960;9.108;2023-06-19T07:49:34;30.80;99.90
3086;DHT22;52812;48.960;9.108;2023-06-19T07:52:00;31.00;99.90
3086;DHT22;52812;48.960;9.108;2023-06-19T07:54:26;30.90;99.90
3086;DHT22;52812;48.960;9.108;2023-06-19T07:56:52;31.20;99.90
3086;DHT22;52812;48.960;9.108;2023-06-19T07:59:17;31.50;99.90
3086;DHT22;52812;48.960;9.108;2023-06-19T08:01:44;31.20;99.90
3086;DHT22;52812;48.960;9.108;2023-06-19T08:04:10;30.50;99.90
3086;DHT22;52812;48.960;9.108;2023-06-19T08:06:35;30.20;99.90
3086;DHT22;52812;48.960;9.108;2023-06-19T08:09:02;30.70;99.90
3086;DHT22;52812;48.960;9.108;2023-06-19T08:11:27;31.50;99.90
3086;DHT22;52812;48.960;9.108;2023-06-19T08:13:53;32.20;99.90
3086;DHT22;52812;48.960;9.108;2023-06-19T08:16:19;32.50;99.90
3086;DHT22;52812;48.960;9.108;2023-06-19T08:18:44;32.80;99.90
3086;DHT22;52812;48.960;9.108;2023-06-19T08:21:10;33.40;99.90
3086;DHT22;52812;48.960;9.108;2023-06-19T08:23:36;33.90;99.90
3086;DHT22;52812;48.960;9.108;2023-06-19T08:26:03;34.20;99.50
3086;DHT22;52812;48.960;9.108;2023-06-19T08:28:31;34.00;99.60
3086;DHT22;52812;48.960;9.108;2023-06-19T08:30:56;33.60;99.20
3086;DHT22;52812;48.960;9.108;2023-06-19T08:33:22;33.40;99.10
3086;DHT22;52812;48.960;9.108;2023-06-19T08:35:48;33.10;98.80
3086;DHT22;52812;48.960;9.108;2023-06-19T08:38:13;32.10;99.00
3086;DHT22;52812;48.960;9.108;2023-06-19T08:40:41;31.80;99.90
3086;DHT22;52812;48.960;9.108;2023-06-19T08:43:07;31.80;99.30
3086;DHT22;52812;48.960;9.108;2023-06-19T08:45:33;31.90;99.90
3086;DHT22;52812;48.960;9.108;2023-06-19T08:48:00;32.00;98.60
3086;DHT22;52812;48.960;9.108;2023-06-19T08:50:29;32.20;99.90
3086;DHT22;52812;48.960;9.108;2023-06-19T08:52:55;31.90;98.70
3086;DHT22;52812;48.960;9.108;2023-06-19T08:55:22;31.60;98.80
3086;DHT22;52812;48.960;9.108;2023-06-19T08:57:48;31.70;99.50
3086;DHT22;52812;48.960;9.108;2023-06-19T09:00:23;31.80;99.40
3086;DHT22;52812;48.960;9.108;2023-06-19T09:02:51;31.20;99.60
3086;DHT22;52812;48.960;9.108;2023-06-19T09:05:18;30.90;99.90
3086;DHT22;52812;48.960;9.108;2023-06-19T09:07:54;31.10;99.90
3086;DHT22;52812;48.960;9.108;2023-06-19T09:10:20;31.30;99.90
3086;DHT22;52812;48.960;9.108;2023-06-19T09:13:02;31.20;99.90
3086;DHT22;52812;48.960;9.108;2023-06-19T09:15:37;31.10;99.90
3086;DHT22;52812;48.960;9.108;2023-06-19T09:18:09;31.10;99.90
3086;DHT22;52812;48.960;9.108;2023-06-19T09:20:39;30.90;99.90
3086;DHT22;52812;48.960;9.108;2023-06-19T09:23:13;31.00;99.90
3086;DHT22;52812;48.960;9.108;2023-06-19T09:25:52;30.70;99.90
3086;DHT22;52812;48.960;9.108;2023-06-19T09:28:26;30.30;99.90
3086;DHT22;52812;48.960;9.108;2023-06-19T09:31:02;30.70;99.90
3086;DHT22;52812;48.960;9.108;2023-06-19T09:33:32;29.80;99.90
3086;DHT22;52812;48.960;9.108;2023-06-19T09:35:59;29.50;99.90
3086;DHT22;52812;48.960;9.108;2023-06-19T09:38:31;29.50;99.90
3086;DHT22;52812;48.960;9.108;2023-06-19T09:41:03;29.00;99.90
3086;DHT22;52812;48.960;9.108;2023-06-19T09:43:43;29.00;99.90
3086;DHT22;52812;48.960;9.108;2023-06-19T09:46:10;29.10;99.90
3086;DHT22;52812;48.960;9.108;2023-06-19T09:48:41;28.90;99.90
3086;DHT22;52812;48.960;9.108;2023-06-19T09:53:40;28.70;99.90
3086;DHT22;52812;48.960;9.108;2023-06-19T09:56:07;28.80;99.90
3086;DHT22;52812;48.960;9.108;2023-06-19T09:58:34;29.10;99.90
3086;DHT22;52812;48.960;9.108;2023-06-19T10:01:00;29.50;99.90
3086;DHT22;52812;48.960;9.108;2023-06-19T10:03:33;29.00;99.90
3086;DHT22;52812;48.960;9.108;2023-06-19T10:06:00;28.70;99.90
3086;DHT22;52812;48.960;9.108;2023-06-19T10:08:32;28.60;99.90
3086;DHT22;52812;48.960;9.108;2023-06-19T10:11:03;28.50;99.90
3086;DHT22;52812;48.960;9.108;2023-06-19T10:13:34;28.90;99.90
3086;DHT22;52812;48.960;9.108;2023-06-19T10:16:00;29.30;99.90
3086;DHT22;52812;48.960;9.108;2023-06-19T10:18:26;29.20;99.90
3086;DHT22;52812;48.960;9.108;2023-06-19T10:20:53;28.50;99.90
3086;DHT22;52812;48.960;9.108;2023-06-19T10:23:21;28.10;99.90
3086;DHT22;52812;48.960;9.108;2023-06-19T10:33:30;28.40;99.90
3086;DHT22;52812;48.960;9.108;2023-06-19T10:35:58;28.30;99.90
3086;DHT22;52812;48.960;9.108;2023-06-19T10:38:25;27.80;99.90
3086;DHT22;52812;48.960;9.108;2023-06-19T10:40:51;27.60;99.90
3086;DHT22;52812;48.960;9.108;2023-06-19T10:43:24;27.50;99.90
3086;DHT22;52812;48.960;9.108;2023-06-19T10:45:53;27.70;99.90
3086;DHT22;52812;48.960;9.108;2023-06-19T10:48:25;28.20;99.90
3086;DHT22;52812;48.960;9.108;2023-06-19T10:50:51;28.70;99.90
3086;DHT22;52812;48.960;9.108;2023-06-19T10:53:27;29.00;99.90
3086;DHT22;52812;48.960;9.108;2023-06-19T10:55:57;29.40;99.90
3086;DHT22;52812;48.960;9.108;2023-06-19T10:58:23;29.20;99.90
3086;DHT22;52812;48.960;9.108;2023-06-19T11:00:48;29.30;99.90
3086;DHT22;52812;48.960;9.108;2023-06-19T11:03:14;29.00;99.90
3086;DHT22;52812;48.960;9.108;2023-06-19T11:05:44;29.30;99.90
3086;DHT22;52812;48.960;9.108;2023-06-19T11:08:10;29.50;99.90
3086;DHT22;52812;48.960;9.108;2023-06-19T11:10:36;29.20;99.90
3086;DHT22;52812;48.960;9.108;2023-06-19T11:13:01;28.60;99.90
3086;DHT22;52812;48.960;9.108;2023-06-19T11:15:33;28.30;99.90
3086;DHT22;52812;48.960;9.108;2023-06-19T11:18:05;28.10;99.90
3086;DHT22;52812;48.960;9.108;2023-06-19T11:20:30;28.40;99.90
3086;DHT22;52812;48.960;9.108;2023-06-19T11:22:59;28.70;99.90
3086;DHT22;52812;48.960;9.108;2023-06-19T11:25:43;28.80;99.90
3086;DHT22;52812;48.960;9.108;2023-06-19T11:28:16;29.30;99.90
3086;DHT22;52812;48.960;9.108;2023-06-19T11:30:57;29.70;99.90
3086;DHT22;52812;48.960;9.108;2023-06-19T11:33:23;30.00;99.90
3086;DHT22;52812;48.960;9.108;2023-06-19T11:35:53;29.90;99.90
3086;DHT22;52812;48.960;9.108;2023-06-19T11:38:23;30.20;99.90
3086;DHT22;52812;48.960;9.108;2023-06-19T11:40:50;30.30;99.90
3086;DHT22;52812;48.960;9.108;2023-06-19T11:43:28;30.50;99.90
3086;DHT22;52812;48.960;9.108;2023-06-19T11:46:03;30.30;99.90
3086;DHT22;52812;48.960;9.108;2023-06-19T11:48:29;29.70;99.90
3086;DHT22;52812;48.960;9.108;2023-06-19T11:50:54;30.00;99.90
3086;DHT22;52812;48.960;9.108;2023-06-19T11:53:21;30.20;99.90
3086;DHT22;52812;48.960;9.108;2023-06-19T11:55:48;30.50;99.90
3086;DHT22;52812;48.960;9.108;2023-06-19T11:58:14;30.70;99.90
3086;DHT22;52812;48.960;9.108;2023-06-19T12:00:41;30.60;99.90
3086;DHT22;52812;48.960;9.108;2023-06-19T12:03:07;30.20;99.90
3086;DHT22;52812;48.960;9.108;2023-06-19T12:05:32;30.00;99.90
3086;DHT22;52812;48.960;9.108;2023-06-19T12:08:01;30.20;99.90
3086;DHT22;52812;48.960;9.108;2023-06-19T12:10:31;30.20;99.90
3086;DHT22;52812;48.960;9.108;2023-06-19T12:12:56;30.50;99.90
3086;DHT22;52812;48.960;9.108;2023-06-19T12:15:24;30.60;99.90
3086;DHT22;52812;48.960;9.108;2023-06-19T12:17:51;30.90;99.90
3086;DHT22;52812;48.960;9.108;2023-06-19T12:20:17;30.70;99.90
3086;DHT22;52812;48.960;9.108;2023-06-19T12:22:46;30.60;99.90
3086;DHT22;52812;48.960;9.108;2023-06-19T12:25:13;30.00;99.90
3086;DHT22;52812;48.960;9.108;2023-06-19T12:27:40;29.60;99.90
3086;DHT22;52812;48.960;9.108;2023-06-19T12:30:06;29.20;99.90
3086;DHT22;52812;48.960;9.108;2023-06-19T12:32:33;29.20;99.90
3086;DHT22;52812;48.960;9.108;2023-06-19T12:34:59;29.20;99.90
3086;DHT22;52812;48.960;9.108;2023-06-19T12:37:25;29.10;99.90
3086;DHT22;52812;48.960;9.108;2023-06-19T12:39:51;29.40;99.90
3086;DHT22;52812;48.960;9.108;2023-06-19T12:42:16;29.70;99.90
3086;DHT22;52812;48.960;9.108;2023-06-19T12:44:43;30.00;99.90
3086;DHT22;52812;48.960;9.108;2023-06-19T12:47:10;30.40;99.90
3086;DHT22;52812;48.960;9.108;2023-06-19T12:49:44;30.80;99.90
3086;DHT22;52812;48.960;9.108;2023-06-19T12:52:10;31.20;99.90
3086;DHT22;52812;48.960;9.108;2023-06-19T12:54:36;31.50;99.90
3086;DHT22;52812;48.960;9.108;2023-06-19T12:57:02;31.50;99.90
3086;DHT22;52812;48.960;9.108;2023-06-19T12:59:29;31.30;99.90
3086;DHT22;52812;48.960;9.108;2023-06-19T13:01:55;30.60;99.70
3086;DHT22;52812;48.960;9.108;2023-06-19T13:04:21;30.60;99.90
3086;DHT22;52812;48.960;9.108;2023-06-19T13:06:46;30.70;99.80
3086;DHT22;52812;48.960;9.108;2023-06-19T13:09:17;30.40;99.90
3086;DHT22;52812;48.960;9.108;2023-06-19T13:11:45;30.30;99.70
3086;DHT22;52812;48.960;9.108;2023-06-19T13:14:10;30.30;99.90
3086;DHT22;52812;48.960;9.108;2023-06-19T13:16:36;30.20;99.90
3086;DHT22;52812;48.960;9.108;2023-06-19T13:19:02;29.90;99.80
3086;DHT22;52812;48.960;9.108;2023-06-19T13:21:28;30.10;99.90
3086;DHT22;52812;48.960;9.108;2023-06-19T13:23:54;30.30;99.90
3086;DHT22;52812;48.960;9.108;2023-06-19T13:26:19;30.30;99.60
3086;DHT22;52812;48.960;9.108;2023-06-19T13:28:45;30.40;99.90
3086;DHT22;52812;48.960;9.108;2023-06-19T13:31:11;30.50;99.90
3086;DHT22;52812;48.960;9.108;2023-06-19T13:33:37;30.70;99.90
3086;DHT22;52812;48.960;9.108;2023-06-19T13:36:03;30.80;99.70
3086;DHT22;52812;48.960;9.108;2023-06-19T13:38:28;30.50;99.80
3086;DHT22;52812;48.960;9.108;2023-06-19T13:40:54;30.20;99.90
3086;DHT22;52812;48.960;9.108;2023-06-19T13:43:20;29.60;99.90
3086;DHT22;52812;48.960;9.108;2023-06-19T13:45:48;29.50;99.90
3086;DHT22;52812;48.960;9.108;2023-06-19T13:48:14;29.60;99.90
3086;DHT22;52812;48.960;9.108;2023-06-19T13:50:39;29.80;99.90
3086;DHT22;52812;48.960;9.108;2023-06-19T13:53:05;29.90;99.90
3086;DHT22;52812;48.960;9.108;2023-06-19T13:55:31;29.70;99.50
3086;DHT22;52812;48.960;9.108;2023-06-19T13:57:56;29.50;99.90
3086;DHT22;52812;48.960;9.108;2023-06-19T14:00:22;29.50;99.90
3086;DHT22;52812;48.960;9.108;2023-06-19T14:02:48;29.60;99.90
3086;DHT22;52812;48.960;9.108;2023-06-19T14:05:15;29.60;99.90
3086;DHT22;52812;48.960;9.108;2023-06-19T14:07:41;29.50;99.90
3086;DHT22;52812;48.960;9.108;2023-06-19T14:10:09;29.60;99.90
3086;DHT22;52812;48.960;9.108;2023-06-19T14:12:35;29.60;99.90
3086;DHT22;52812;48.960;9.108;2023-06-19T14:15:01;29.60;99.90
3086;DHT22;52812;48.960;9.108;2023-06-19T14:17:26;29.60;99.90
3086;DHT22;52812;48.960;9.108;2023-06-19T14:19:52;29.50;99.90
3086;DHT22;52812;48.960;9.108;2023-06-19T14:22:18;29.40;99.90
3086;DHT22;52812;48.960;9.108;2023-06-19T14:24:44;29.20;99.90
3086;DHT22;52812;48.960;9.108;2023-06-19T14:27:10;29.20;99.90
3086;DHT22;52812;48.960;9.108;2023-06-19T14:29:35;29.10;99.90
3086;DHT22;52812;48.960;9.108;2023-06-19T14:32:01;29.10;99.90
3086;DHT22;52812;48.960;9.108;2023-06-19T14:34:28;29.20;99.90
3086;DHT22;52812;48.960;9.108;2023-06-19T14:36:53;29.20;99.90
3086;DHT22;52812;48.960;9.108;2023-06-19T14:39:19;29.30;99.90
3086;DHT22;52812;48.960;9.108;2023-06-19T14:41:45;29.50;99.90
3086;DHT22;52812;48.960;9.108;2023-06-19T14:44:10;29.90;99.90
3086;DHT22;52812;48.960;9.108;2023-06-19T14:46:36;30.20;99.90
3086;DHT22;52812;48.960;9.108;2023-06-19T14:49:05;30.10;99.90
3086;DHT22;52812;48.960;9.108;2023-06-19T14:51:31;30.10;99.70
3086;DHT22;52812;48.960;9.108;2023-06-19T14:53:57;30.00;99.90
3086;DHT22;52812;48.960;9.108;2023-06-19T14:56:22;30.10;99.90
3086;DHT22;52812;48.960;9.108;2023-06-19T14:58:48;30.40;99.90
3086;DHT22;52812;48.960;9.108;2023-06-19T15:01:13;30.60;99.90
3086;DHT22;52812;48.960;9.108;2023-06-19T15:03:39;30.70;99.90
3086;DHT22;52812;48.960;9.108;2023-06-19T15:06:04;30.70;99.90
3086;DHT22;52812;48.960;9.108;2023-06-19T15:08:30;30.60;99.90
3086;DHT22;52812;48.960;9.108;2023-06-19T15:10:56;30.40;99.70
3086;DHT22;52812;48.960;9.108;2023-06-19T15:13:23;30.00;99.50
3086;DHT22;52812;48.960;9.108;2023-06-19T15:15:51;29.90;99.90
3086;DHT22;52812;48.960;9.108;2023-06-19T15:18:16;29.80;99.90
3086;DHT22;52812;48.960;9.108;2023-06-19T15:20:42;29.70;99.90
3086;DHT22;52812;48.960;9.108;2023-06-19T15:23:08;29.70;99.90
3086;DHT22;52812;48.960;9.108;2023-06-19T15:25:34;29.60;99.90
3086;DHT22;52812;48.960;9.108;2023-06-19T15:28:00;29.40;99.90
3086;DHT22;52812;48.960;9.108;2023-06-19T15:30:26;29.40;99.90
3086;DHT22;52812;48.960;9.108;2023-06-19T15:32:52;29.40;99.90
3086;DHT22;52812;48.960;9.108;2023-06-19T15:35:18;29.20;99.90
3086;DHT22;52812;48.960;9.108;2023-06-19T15:37:45;29.00;99.90
3086;DHT22;52812;48.960;9.108;2023-06-19T15:40:12;28.80;99.90
3086;DHT22;52812;48.960;9.108;2023-06-19T15:42:40;28.60;99.90
3086;DHT22;52812;48.960;9.108;2023-06-19T15:45:06;28.30;99.90
3086;DHT22;52812;48.960;9.108;2023-06-19T15:47:31;28.20;99.90
3086;DHT22;52812;48.960;9.108;2023-06-19T15:50:00;28.10;99.90
3086;DHT22;52812;48.960;9.108;2023-06-19T15:52:28;28.00;99.90
3086;DHT22;52812;48.960;9.108;2023-06-19T15:54:54;28.00;99.90
3086;DHT22;52812;48.960;9.108;2023-06-19T15:57:20;27.90;99.90
3086;DHT22;52812;48.960;9.108;2023-06-19T15:59:46;27.80;99.90